Time;durP1;ratioP1;P1;durP2;ratioP2;P2;SDS_P1;SDS_P2;PMS_P1;PMS_P2;Temp;Humidity;BMP_temperature;BMP_pressure;BME280_temperature;BME280_humidity;BME280_pressure;Samples;Min_cycle;Max_cycle;Signal;HPM_P1;HPM_P2
2023/08/05 00:00:24;;;;;;;5.72;2.03;;;14.70;99.90;;;;;;5070751;28;20028;-51
2023/08/05 00:02:49;;;;;;;4.22;1.50;;;14.70;99.90;;;;;;5070762;28;20032;-54
2023/08/05 00:05:15;;;;;;;3.95;1.48;;;14.70;99.90;;;;;;5070641;28;20116;-55
2023/08/05 00:07:41;;;;;;;6.03;2.30;;;14.70;99.90;;;;;;5070142;28;20017;-50
2023/08/05 00:10:07;;;;;;;4.80;1.85;;;14.70;99.90;;;;;;5070435;28;20074;-55
2023/08/05 00:12:32;;;;;;;3.88;2.03;;;14.70;99.90;;;;;;5070436;28;20063;-50
2023/08/05 00:14:58;;;;;;;4.65;1.88;;;14.60;99.90;;;;;;5070594;28;20020;-51
2023/08/05 00:17:24;;;;;;;4.50;2.20;;;14.60;99.90;;;;;;5070353;28;20568;-47
2023/08/05 00:19:50;;;;;;;7.50;2.25;;;14.50;99.90;;;;;;5070349;28;20016;-47
2023/08/05 00:22:16;;;;;;;6.97;2.42;;;14.50;99.90;;;;;;5068908;28;20094;-51
2023/08/05 00:24:41;;;;;;;5.72;2.70;;;14.50;99.90;;;;;;5069964;28;20428;-50
2023/08/05 00:27:07;;;;;;;6.22;2.55;;;14.50;99.90;;;;;;5070268;28;20492;-48
2023/08/05 00:29:33;;;;;;;8.55;2.70;;;14.50;99.90;;;;;;5070133;28;20020;-53
2023/08/05 00:31:58;;;;;;;4.53;2.33;;;14.60;99.90;;;;;;5070144;28;20047;-52
2023/08/05 00:34:24;;;;;;;6.50;3.05;;;14.60;99.90;;;;;;5069843;28;20040;-47
2023/08/05 00:36:49;;;;;;;6.72;2.75;;;14.60;99.90;;;;;;5069926;28;20036;-51
2023/08/05 00:39:15;;;;;;;8.75;3.22;;;14.70;99.90;;;;;;5070224;28;20504;-48
2023/08/05 00:41:41;;;;;;;11.40;3.60;;;14.70;99.90;;;;;;5070063;28;20024;-49
2023/08/05 00:44:06;;;;;;;6.18;3.75;;;14.60;99.90;;;;;;5070151;28;20029;-47
2023/08/05 00:46:32;;;;;;;8.05;3.25;;;14.70;99.90;;;;;;5070054;28;20473;-48
2023/08/05 00:48:58;;;;;;;10.82;3.65;;;14.70;99.90;;;;;;5069793;28;20040;-51
2023/08/05 00:51:23;;;;;;;8.15;3.30;;;14.80;99.90;;;;;;5069827;28;20039;-47
2023/08/05 00:53:50;;;;;;;5.85;2.92;;;14.70;99.90;;;;;;5069937;28;20088;-52
2023/08/05 00:56:16;;;;;;;6.15;2.80;;;14.70;99.90;;;;;;5068850;28;20024;-47
2023/08/05 00:58:44;;;;;;;5.47;2.58;;;14.70;99.90;;;;;;5069928;28;20081;-51
2023/08/05 01:01:10;;;;;;;4.75;1.85;;;14.70;99.90;;;;;;5069936;28;20461;-47
2023/08/05 01:03:37;;;;;;;3.58;2.10;;;14.70;99.90;;;;;;5069773;28;20044;-47
2023/08/05 01:06:05;;;;;;;9.48;2.22;;;14.70;99.90;;;;;;5069948;28;20040;-49
2023/08/05 01:08:32;;;;;;;5.80;2.60;;;14.60;99.90;;;;;;5069651;28;20040;-51
2023/08/05 01:11:00;;;;;;;7.20;3.50;;;14.60;99.90;;;;;;5069634;28;20040;-53
2023/08/05 01:13:25;;;;;;;7.53;3.33;;;14.60;99.90;;;;;;5069828;28;20114;-48
2023/08/05 01:15:51;;;;;;;4.25;2.17;;;14.60;99.90;;;;;;5068214;28;20028;-49
2023/08/05 01:18:17;;;;;;;5.50;2.30;;;14.60;99.90;;;;;;5069758;28;20081;-55
2023/08/05 01:20:53;;;;;;;5.80;2.70;;;14.60;99.90;;;;;;5069623;28;20033;-46
2023/08/05 01:23:23;;;;;;;4.75;2.38;;;14.70;99.90;;;;;;5069553;28;20017;-51
2023/08/05 01:25:50;;;;;;;6.18;2.50;;;14.70;99.90;;;;;;5069458;28;20443;-53
2023/08/05 01:28:17;;;;;;;4.63;2.55;;;14.70;99.90;;;;;;5069672;28;20031;-47
2023/08/05 01:30:43;;;;;;;5.63;2.22;;;14.60;99.90;;;;;;5069471;28;20048;-53
2023/08/05 01:33:11;;;;;;;5.50;2.38;;;14.60;99.90;;;;;;5069555;28;20048;-53
2023/08/05 01:35:37;;;;;;;6.25;2.08;;;14.60;99.90;;;;;;5069138;28;20049;-49
2023/08/05 01:38:03;;;;;;;7.03;2.45;;;14.60;99.90;;;;;;5069504;28;20025;-49
2023/08/05 01:40:28;;;;;;;3.47;1.92;;;14.50;99.90;;;;;;5069270;28;20472;-47
2023/08/05 01:42:57;;;;;;;4.68;2.22;;;14.50;99.90;;;;;;5069270;28;20098;-51
2023/08/05 01:45:24;;;;;;;3.90;2.30;;;14.50;99.90;;;;;;5069136;28;20027;-48
2023/08/05 01:47:49;;;;;;;4.57;2.47;;;14.50;99.90;;;;;;5067929;28;20381;-46
2023/08/05 01:50:15;;;;;;;4.13;2.40;;;14.60;99.90;;;;;;5069231;28;20032;-47
2023/08/05 01:52:40;;;;;;;4.63;2.40;;;14.60;99.90;;;;;;5069047;28;20029;-50
2023/08/05 01:55:06;;;;;;;5.13;2.10;;;14.60;99.90;;;;;;5067969;28;20032;-49
2023/08/05 01:57:32;;;;;;;5.97;2.25;;;14.60;99.90;;;;;;5069054;28;20538;-47
2023/08/05 01:59:57;;;;;;;6.93;2.55;;;14.50;99.90;;;;;;5069178;28;20036;-49
2023/08/05 02:02:23;;;;;;;4.30;2.40;;;14.50;99.90;;;;;;5068893;28;20028;-47
2023/08/05 02:04:49;;;;;;;6.05;2.42;;;14.50;99.90;;;;;;5069132;28;20032;-50
2023/08/05 02:07:14;;;;;;;5.32;2.28;;;14.40;99.90;;;;;;5069010;28;20020;-52
2023/08/05 02:09:40;;;;;;;4.60;2.17;;;14.40;99.90;;;;;;5068767;28;20021;-53
2023/08/05 02:12:06;;;;;;;4.32;2.20;;;14.30;99.90;;;;;;5069049;28;20501;-50
2023/08/05 02:14:31;;;;;;;5.07;2.25;;;14.20;99.90;;;;;;5070130;28;20028;-48
2023/08/05 02:16:57;;;;;;;5.00;2.30;;;14.20;99.90;;;;;;5072604;28;20036;-52
2023/08/05 02:19:22;;;;;;;4.93;2.15;;;14.20;99.90;;;;;;5072498;28;20109;-47
2023/08/05 02:21:48;;;;;;;5.38;2.40;;;14.20;99.90;;;;;;5072666;28;20035;-47
2023/08/05 02:24:14;;;;;;;5.05;2.42;;;14.30;99.90;;;;;;5072340;28;20033;-51
2023/08/05 02:26:39;;;;;;;6.88;2.75;;;14.30;99.90;;;;;;5072463;28;20431;-51
2023/08/05 02:29:05;;;;;;;6.38;2.40;;;14.30;99.90;;;;;;5072208;28;20024;-50
2023/08/05 02:31:31;;;;;;;7.68;2.30;;;14.30;99.90;;;;;;5072200;28;20393;-47
2023/08/05 02:33:56;;;;;;;5.78;2.30;;;14.30;99.90;;;;;;5070982;28;20071;-54
2023/08/05 02:36:22;;;;;;;4.57;2.20;;;14.30;99.90;;;;;;5071133;28;20016;-50
2023/08/05 02:38:47;;;;;;;5.25;1.80;;;14.40;99.90;;;;;;5072268;28;20131;-49
2023/08/05 02:41:13;;;;;;;8.32;2.25;;;14.30;99.90;;;;;;5072010;28;20237;-51
2023/08/05 02:43:39;;;;;;;5.18;2.22;;;14.30;99.90;;;;;;5070792;28;20017;-54
2023/08/05 02:46:04;;;;;;;3.75;2.00;;;14.30;99.90;;;;;;5072257;28;20646;-53
2023/08/05 02:48:30;;;;;;;5.72;2.15;;;14.30;99.90;;;;;;5072243;28;20414;-50
2023/08/05 02:50:56;;;;;;;5.28;2.35;;;14.30;99.90;;;;;;5072004;28;20460;-53
2023/08/05 02:53:22;;;;;;;5.72;2.25;;;14.30;99.90;;;;;;5071880;28;20021;-55
2023/08/05 02:55:47;;;;;;;7.05;2.45;;;14.30;99.90;;;;;;5072155;28;20020;-49
2023/08/05 02:58:17;;;;;;;5.25;2.50;;;14.30;99.90;;;;;;5072090;28;20033;-51
2023/08/05 03:00:43;;;;;;;7.53;2.67;;;14.30;99.90;;;;;;5072267;28;20024;-50
2023/08/05 03:03:10;;;;;;;4.30;2.28;;;14.30;99.90;;;;;;5072084;28;20066;-48
2023/08/05 03:05:36;;;;;;;6.97;2.25;;;14.20;99.90;;;;;;5072224;28;20043;-53
2023/08/05 03:08:02;;;;;;;6.03;2.35;;;14.20;99.90;;;;;;5071823;28;20021;-50
2023/08/05 03:10:27;;;;;;;3.95;2.10;;;14.20;99.90;;;;;;5071937;28;20047;-50
2023/08/05 03:12:53;;;;;;;8.27;2.78;;;14.10;99.90;;;;;;5071828;28;20183;-53
2023/08/05 03:15:18;;;;;;;7.72;2.45;;;14.20;99.90;;;;;;5071992;28;20492;-48
2023/08/05 03:17:44;;;;;;;5.93;2.40;;;14.20;99.90;;;;;;5071728;28;20096;-49
2023/08/05 03:20:26;;;;;;;5.60;2.45;;;14.20;99.90;;;;;;5071787;28;20116;-50
2023/08/05 03:22:53;;;;;;;5.50;2.83;;;14.20;99.90;;;;;;5071561;28;20021;-50
2023/08/05 03:25:23;;;;;;;3.58;1.92;;;14.10;99.90;;;;;;5070728;28;20024;-53
2023/08/05 03:27:49;;;;;;;;;;;14.10;99.90;;;;;;5071760;28;20078;-51
2023/08/05 03:30:15;;;;;;;6.53;2.65;;;14.00;99.90;;;;;;5071530;28;19920;-55
2023/08/05 03:32:40;;;;;;;8.43;2.28;;;14.00;99.90;;;;;;5071506;28;20032;-51
2023/08/05 03:35:06;;;;;;;6.63;2.67;;;14.00;99.90;;;;;;5071182;28;20049;-49
2023/08/05 03:37:32;;;;;;;12.80;2.72;;;14.00;99.90;;;;;;5071320;28;20063;-53
2023/08/05 03:39:57;;;;;;;4.43;2.13;;;14.00;99.90;;;;;;5070955;28;20082;-51
2023/08/05 03:42:23;;;;;;;5.93;2.55;;;14.00;99.90;;;;;;5071442;28;20024;-52
2023/08/05 03:44:49;;;;;;;7.25;3.00;;;14.00;99.90;;;;;;5071285;28;20415;-51
2023/08/05 03:47:15;;;;;;;6.57;2.55;;;14.00;99.90;;;;;;5071171;28;20112;-55
2023/08/05 03:49:41;;;;;;;7.13;2.83;;;14.00;99.90;;;;;;5070975;28;20096;-50
2023/08/05 03:52:07;;;;;;;6.47;3.00;;;14.00;99.90;;;;;;5071017;28;20123;-49
2023/08/05 03:54:33;;;;;;;4.70;2.65;;;13.90;99.90;;;;;;5069620;28;20146;-52
2023/08/05 03:56:59;;;;;;;9.85;3.38;;;14.00;99.90;;;;;;5069658;28;20065;-53
2023/08/05 03:59:25;;;;;;;8.63;2.97;;;13.90;99.90;;;;;;5070595;28;20485;-53
2023/08/05 04:01:51;;;;;;;5.45;2.55;;;13.90;99.90;;;;;;5070757;28;20028;-49
2023/08/05 04:04:17;;;;;;;4.82;2.55;;;13.90;99.90;;;;;;5070586;28;20024;-50
2023/08/05 04:06:45;;;;;;;4.60;2.60;;;13.90;99.90;;;;;;5070457;28;20350;-49
2023/08/05 04:09:11;;;;;;;8.82;3.05;;;13.90;99.90;;;;;;5070271;28;20479;-47
2023/08/05 04:11:37;;;;;;;7.40;2.75;;;13.80;99.90;;;;;;5057152;28;20035;-53
2023/08/05 04:14:03;;;;;;;6.88;2.70;;;13.90;99.90;;;;;;5070412;28;20035;-53
2023/08/05 04:16:30;;;;;;;8.10;3.30;;;13.80;99.90;;;;;;5070318;28;20055;-55
2023/08/05 04:18:55;;;;;;;7.70;2.90;;;13.90;99.90;;;;;;5070123;28;20349;-51
2023/08/05 04:21:25;;;;;;;9.52;3.45;;;13.90;99.90;;;;;;5070098;28;20091;-50
2023/08/05 04:23:50;;;;;;;7.60;3.53;;;13.90;99.90;;;;;;5070019;28;20021;-52
2023/08/05 04:26:17;;;;;;;6.78;3.40;;;14.00;99.90;;;;;;5069784;28;20043;-49
2023/08/05 04:28:43;;;;;;;9.15;4.03;;;14.00;99.90;;;;;;5070171;28;20017;-47
2023/08/05 04:31:08;;;;;;;9.57;4.30;;;13.90;99.90;;;;;;5070074;28;20040;-48
2023/08/05 04:33:34;;;;;;;8.60;3.67;;;14.00;99.90;;;;;;5069781;28;20021;-47
2023/08/05 04:35:59;;;;;;;8.75;3.95;;;14.10;99.90;;;;;;5070053;28;20044;-48
2023/08/05 04:38:25;;;;;;;11.60;4.47;;;14.10;99.90;;;;;;5069368;28;20048;-46
2023/08/05 04:40:51;;;;;;;11.63;4.18;;;14.10;99.90;;;;;;5070363;28;20023;-46
2023/08/05 04:43:17;;;;;;;8.07;3.38;;;14.10;99.90;;;;;;5069648;28;20071;-46
2023/08/05 04:45:44;;;;;;;11.20;4.53;;;14.10;99.90;;;;;;5069876;28;20016;-46
2023/08/05 04:48:10;;;;;;;8.82;3.25;;;14.20;99.90;;;;;;5069882;28;20039;-49
2023/08/05 04:50:37;;;;;;;8.80;4.00;;;14.20;99.90;;;;;;5069817;28;20040;-49
2023/08/05 04:53:04;;;;;;;8.13;3.90;;;14.20;99.90;;;;;;5069891;28;20563;-54
2023/08/05 04:55:29;;;;;;;8.60;3.75;;;14.20;99.90;;;;;;5069762;28;20481;-54
2023/08/05 04:57:55;;;;;;;9.30;4.22;;;14.30;99.90;;;;;;5069893;28;20035;-50
2023/08/05 05:00:21;;;;;;;8.80;4.13;;;14.30;99.90;;;;;;5069877;28;20036;-50
2023/08/05 05:02:48;;;;;;;11.20;4.03;;;14.30;99.90;;;;;;5069727;28;20029;-54
2023/08/05 05:05:13;;;;;;;9.85;3.67;;;14.30;99.90;;;;;;5069944;28;20429;-50
2023/08/05 05:07:39;;;;;;;9.88;4.32;;;14.30;99.90;;;;;;5069592;28;20516;-53
2023/08/05 05:10:05;;;;;;;10.00;3.83;;;14.30;99.90;;;;;;5069843;28;20028;-47
2023/08/05 05:12:31;;;;;;;10.32;3.47;;;14.30;99.90;;;;;;5068339;28;20090;-55
2023/08/05 05:14:56;;;;;;;10.88;3.90;;;14.30;99.90;;;;;;5068446;28;20021;-58
2023/08/05 05:17:22;;;;;;;9.98;3.55;;;14.40;99.90;;;;;;5069750;28;20385;-54
2023/08/05 05:19:48;;;;;;;11.82;4.32;;;14.40;99.90;;;;;;5069573;28;20350;-53
2023/08/05 05:22:18;;;;;;;8.57;3.78;;;14.40;99.90;;;;;;5069453;28;20021;-55
2023/08/05 05:24:45;;;;;;;9.13;3.40;;;14.50;99.90;;;;;;5069681;28;20050;-50
2023/08/05 05:27:14;;;;;;;9.15;3.92;;;14.50;99.90;;;;;;5069801;28;20040;-49
2023/08/05 05:29:40;;;;;;;8.33;4.30;;;14.60;99.90;;;;;;5069563;28;20021;-55
2023/08/05 05:32:06;;;;;;;9.95;3.90;;;14.60;99.90;;;;;;5069579;28;20382;-55
2023/08/05 05:34:31;;;;;;;11.15;4.00;;;14.60;99.90;;;;;;5069500;28;20051;-56
2023/08/05 05:36:57;;;;;;;11.68;4.10;;;14.60;99.90;;;;;;5069304;28;20342;-51
2023/08/05 05:39:23;;;;;;;7.50;3.90;;;14.60;99.90;;;;;;5069513;28;20181;-48
2023/08/05 05:41:48;;;;;;;6.95;3.17;;;14.60;99.90;;;;;;5068063;28;20024;-53
2023/08/05 05:44:14;;;;;;;11.57;3.60;;;14.50;99.90;;;;;;5069527;28;20035;-51
2023/08/05 05:46:40;;;;;;;8.80;3.83;;;14.50;99.90;;;;;;5069398;28;20027;-56
2023/08/05 05:49:06;;;;;;;10.98;4.15;;;14.50;99.90;;;;;;5069891;28;20027;-51
2023/08/05 05:51:32;;;;;;;9.18;4.22;;;14.50;99.90;;;;;;5073391;28;20098;-50
2023/08/05 05:53:58;;;;;;;12.02;3.92;;;14.50;99.90;;;;;;5073058;28;20021;-48
2023/08/05 05:56:23;;;;;;;8.48;3.55;;;14.50;99.90;;;;;;5073169;28;20035;-57
2023/08/05 05:58:50;;;;;;;14.57;4.63;;;14.60;99.90;;;;;;5073160;28;20032;-51
2023/08/05 06:01:16;;;;;;;12.45;4.90;;;14.60;99.90;;;;;;5072704;28;20047;-58
2023/08/05 06:03:42;;;;;;;11.52;4.30;;;14.70;99.90;;;;;;5072907;28;20478;-51
2023/08/05 06:06:08;;;;;;;13.18;4.88;;;14.80;99.90;;;;;;5072518;28;20020;-52
2023/08/05 06:08:34;;;;;;;11.50;4.72;;;14.90;99.90;;;;;;5072642;28;20107;-57
2023/08/05 06:11:03;;;;;;;11.40;4.70;;;15.00;99.90;;;;;;5072294;28;20405;-46
2023/08/05 06:13:29;;;;;;;9.40;4.10;;;15.00;99.90;;;;;;5072639;28;20024;-52
2023/08/05 06:15:55;;;;;;;9.98;4.40;;;15.00;99.90;;;;;;5072588;28;20028;-50
2023/08/05 06:18:21;;;;;;;12.18;5.60;;;15.20;99.90;;;;;;5072541;28;20028;-53
2023/08/05 06:20:48;;;;;;;10.32;4.80;;;15.30;99.90;;;;;;5072439;28;20190;-48
2023/08/05 06:23:14;;;;;;;9.82;5.05;;;15.40;99.90;;;;;;5072643;28;20056;-55
2023/08/05 06:25:39;;;;;;;10.75;4.75;;;15.40;99.90;;;;;;5072660;28;20346;-51
2023/08/05 06:28:05;;;;;;;11.45;4.35;;;15.40;99.90;;;;;;5078108;28;20032;-52
2023/08/05 06:30:30;;;;;;;10.40;4.72;;;15.30;99.90;;;;;;5072317;28;20043;-48
2023/08/05 06:32:56;;;;;;;9.02;4.05;;;15.30;99.90;;;;;;5072380;28;20020;-52
2023/08/05 06:35:22;;;;;;;7.93;4.07;;;15.30;99.90;;;;;;5071708;28;20051;-49
2023/08/05 06:37:47;;;;;;;10.07;4.75;;;15.20;99.90;;;;;;5072223;28;20477;-50
2023/08/05 06:40:13;;;;;;;8.70;4.80;;;15.20;99.90;;;;;;5072015;28;20028;-48
2023/08/05 06:42:39;;;;;;;9.68;4.63;;;15.00;99.90;;;;;;5072539;28;20034;-53
2023/08/05 06:45:05;;;;;;;9.55;4.70;;;15.00;99.90;;;;;;5072100;28;20028;-49
2023/08/05 06:47:31;;;;;;;10.27;5.03;;;14.90;99.90;;;;;;5072024;28;20028;-52
2023/08/05 06:49:58;;;;;;;12.70;5.13;;;14.90;99.90;;;;;;5072202;28;20439;-55
2023/08/05 06:52:23;;;;;;;10.95;4.88;;;14.80;99.90;;;;;;5071888;28;20102;-52
2023/08/05 06:54:49;;;;;;;10.90;4.90;;;14.80;99.90;;;;;;5072346;28;20021;-50
2023/08/05 06:57:15;;;;;;;10.07;3.90;;;14.90;99.90;;;;;;5071638;28;20346;-53
2023/08/05 06:59:40;;;;;;;9.60;4.72;;;14.90;99.90;;;;;;5071426;28;20064;-57
2023/08/05 07:02:06;;;;;;;17.23;5.13;;;15.00;99.90;;;;;;5071481;28;20051;-57
2023/08/05 07:04:32;;;;;;;14.05;5.50;;;15.00;99.90;;;;;;5071194;28;20025;-55
2023/08/05 07:06:58;;;;;;;10.00;4.20;;;15.00;99.90;;;;;;5071687;28;20448;-58
2023/08/05 07:09:23;;;;;;;10.65;5.32;;;15.10;99.90;;;;;;5071704;28;20096;-52
2023/08/05 07:11:49;;;;;;;10.85;4.22;;;15.10;99.90;;;;;;5071550;28;20037;-53
2023/08/05 07:14:15;;;;;;;13.32;4.57;;;15.10;99.90;;;;;;5071363;28;20127;-53
2023/08/05 07:16:40;;;;;;;13.02;5.47;;;15.10;99.90;;;;;;5070121;28;20134;-53
2023/08/05 07:19:06;;;;;;;11.38;4.72;;;15.20;99.90;;;;;;5071847;28;20112;-52
2023/08/05 07:21:32;;;;;;;11.50;4.68;;;15.20;99.90;;;;;;5071118;28;20086;-52
2023/08/05 07:23:58;;;;;;;13.60;5.80;;;15.20;99.90;;;;;;5070150;28;20051;-51
2023/08/05 07:26:23;;;;;;;12.68;4.72;;;15.10;99.90;;;;;;5070050;28;20021;-52
2023/08/05 07:28:49;;;;;;;12.77;4.93;;;15.00;99.90;;;;;;5070043;28;20466;-51
2023/08/05 07:31:16;;;;;;;10.80;4.78;;;15.00;99.90;;;;;;5071016;28;20493;-49
2023/08/05 07:33:43;;;;;;;11.60;5.20;;;14.90;99.90;;;;;;5071383;28;20028;-47
2023/08/05 07:36:17;;;;;;;13.05;4.65;;;14.90;99.90;;;;;;5071214;28;20021;-53
2023/08/05 07:38:45;;;;;;;11.85;5.38;;;14.90;99.90;;;;;;5070102;28;20370;-54
2023/08/05 07:41:15;;;;;;;8.77;4.43;;;14.90;99.90;;;;;;5069045;28;20110;-52
2023/08/05 07:43:42;;;;;;;10.75;4.82;;;14.80;99.90;;;;;;5068914;28;20104;-53
2023/08/05 07:46:11;;;;;;;9.75;4.03;;;14.90;99.90;;;;;;5069312;28;20107;-49
2023/08/05 07:48:39;;;;;;;8.65;3.95;;;14.80;99.90;;;;;;5069062;28;20404;-50
2023/08/05 07:51:06;;;;;;;13.77;4.43;;;14.90;99.90;;;;;;5068773;28;20607;-51
2023/08/05 07:53:35;;;;;;;9.15;3.72;;;14.80;99.90;;;;;;5069530;28;20115;-50
2023/08/05 07:56:11;;;;;;;10.77;3.80;;;14.80;99.90;;;;;;5070807;28;20028;-51
2023/08/05 07:58:42;;;;;;;10.68;4.25;;;14.80;99.90;;;;;;5071280;28;20124;-55
2023/08/05 08:01:17;;;;;;;8.57;4.22;;;14.50;99.90;;;;;;5070674;28;20660;-52
2023/08/05 08:03:43;;;;;;;8.95;4.05;;;14.50;99.90;;;;;;5070915;28;20021;-51
2023/08/05 08:06:09;;;;;;;10.80;4.00;;;14.50;99.90;;;;;;5070552;28;20107;-46
2023/08/05 08:08:34;;;;;;;9.23;3.97;;;14.60;99.90;;;;;;5070811;28;20028;-51
2023/08/05 08:11:00;;;;;;;12.63;4.13;;;14.60;99.90;;;;;;5070378;28;20040;-52
2023/08/05 08:13:26;;;;;;;10.70;4.43;;;14.60;99.90;;;;;;5069863;28;20033;-47
2023/08/05 08:15:51;;;;;;;8.63;3.83;;;14.50;99.90;;;;;;5070467;28;20051;-48
2023/08/05 08:18:17;;;;;;;9.88;3.83;;;14.50;99.90;;;;;;5070260;28;20021;-51
2023/08/05 08:20:52;;;;;;;13.30;3.33;;;14.50;99.90;;;;;;5070440;28;20024;-50
2023/08/05 08:23:18;;;;;;;8.85;3.10;;;14.50;99.90;;;;;;5068827;28;20037;-49
2023/08/05 08:25:44;;;;;;;6.15;2.65;;;14.50;99.90;;;;;;5070583;28;20028;-54
2023/08/05 08:28:09;;;;;;;10.90;3.30;;;14.50;99.90;;;;;;5068699;28;20032;-46
2023/08/05 08:30:35;;;;;;;8.68;2.88;;;14.40;99.90;;;;;;5070000;28;20114;-47
2023/08/05 08:33:01;;;;;;;7.82;2.80;;;14.40;99.90;;;;;;5070095;28;20031;-54
2023/08/05 08:35:26;;;;;;;11.88;3.17;;;14.50;99.90;;;;;;5069919;28;20528;-48
2023/08/05 08:37:52;;;;;;;8.70;2.80;;;14.50;99.90;;;;;;5070002;28;20108;-49
2023/08/05 08:40:18;;;;;;;10.68;3.00;;;14.50;99.90;;;;;;5069938;28;20028;-48
2023/08/05 08:42:44;;;;;;;4.65;1.88;;;14.50;99.90;;;;;;5070194;28;20036;-48
2023/08/05 08:45:14;;;;;;;4.80;1.67;;;14.40;99.90;;;;;;5070245;28;20023;-51
2023/08/05 08:47:40;;;;;;;6.75;1.60;;;14.30;99.90;;;;;;5070024;28;20020;-49
2023/08/05 08:50:06;;;;;;;4.55;2.13;;;14.20;99.90;;;;;;5070247;28;20040;-54
2023/08/05 08:52:34;;;;;;;7.20;2.33;;;14.10;99.90;;;;;;5069817;28;20020;-55
2023/08/05 08:55:03;;;;;;;7.38;2.00;;;14.00;99.90;;;;;;5070159;28;20040;-48
2023/08/05 08:57:29;;;;;;;5.30;2.20;;;14.10;99.90;;;;;;5069751;28;20020;-50
2023/08/05 08:59:55;;;;;;;3.78;1.95;;;14.00;99.90;;;;;;5069933;28;20033;-48
2023/08/05 09:02:24;;;;;;;5.20;1.80;;;14.00;99.90;;;;;;5068493;28;20039;-51
2023/08/05 09:04:53;;;;;;;6.05;1.85;;;13.90;99.90;;;;;;5069752;28;20377;-52
2023/08/05 09:07:24;;;;;;;4.28;1.65;;;13.90;99.90;;;;;;5069712;28;20044;-50
2023/08/05 09:09:50;;;;;;;4.10;1.63;;;14.10;99.90;;;;;;5068530;28;20079;-54
2023/08/05 09:12:16;;;;;;;5.22;1.20;;;14.10;99.90;;;;;;5069773;28;20076;-49
2023/08/05 09:14:42;;;;;;;4.88;1.85;;;14.30;99.90;;;;;;5069741;28;20032;-49
2023/08/05 09:17:07;;;;;;;3.20;1.58;;;14.30;99.90;;;;;;5069642;28;20307;-49
2023/08/05 09:19:33;;;;;;;2.80;1.17;;;14.30;99.90;;;;;;5069524;28;20068;-50
2023/08/05 09:22:06;;;;;;;3.20;1.23;;;14.40;99.90;;;;;;5069752;28;20608;-50
2023/08/05 09:24:32;;;;;;;7.13;1.98;;;14.40;99.90;;;;;;5072810;28;20017;-49
2023/08/05 09:26:59;;;;;;;7.20;1.52;;;14.40;99.90;;;;;;5073812;28;20032;-51
2023/08/05 09:29:26;;;;;;;5.18;1.30;;;14.40;99.90;;;;;;5073748;28;20203;-49
2023/08/05 09:32:05;;;;;;;6.25;1.40;;;14.50;99.90;;;;;;5073487;28;20123;-49
2023/08/05 09:34:33;;;;;;;3.28;1.40;;;14.50;99.90;;;;;;5073722;28;20109;-51
2023/08/05 09:36:59;;;;;;;3.78;2.00;;;14.50;99.90;;;;;;5072350;28;20028;-48
2023/08/05 09:39:25;;;;;;;5.00;1.58;;;14.40;99.90;;;;;;5073819;28;20036;-49
2023/08/05 09:41:54;;;;;;;7.20;1.92;;;14.30;99.90;;;;;;5073868;28;20012;-49
2023/08/05 09:44:20;;;;;;;3.72;1.45;;;14.30;99.90;;;;;;5073852;28;20025;-50
2023/08/05 09:46:46;;;;;;;11.20;1.67;;;14.20;99.90;;;;;;5073965;28;20025;-50
2023/08/05 09:49:17;;;;;;;9.23;1.73;;;14.20;99.90;;;;;;5073870;28;20134;-49
2023/08/05 09:51:45;;;;;;;8.68;2.20;;;14.30;99.90;;;;;;5073575;28;20036;-50
2023/08/05 09:54:15;;;;;;;6.10;2.00;;;14.20;99.90;;;;;;5073284;28;20052;-53
2023/08/05 09:56:40;;;;;;;6.05;1.63;;;14.20;99.90;;;;;;5073551;28;20028;-54
2023/08/05 09:59:08;;;;;;;4.25;1.85;;;14.20;99.90;;;;;;5073177;28;20047;-51
2023/08/05 10:01:36;;;;;;;3.92;1.52;;;14.20;99.90;;;;;;5073340;28;20390;-52
2023/08/05 10:04:02;;;;;;;2.72;1.13;;;14.20;99.90;;;;;;5073048;28;20028;-47
2023/08/05 10:06:29;;;;;;;6.55;1.50;;;14.20;99.90;;;;;;5073256;28;20016;-53
2023/08/05 10:08:56;;;;;;;4.68;1.20;;;14.30;99.90;;;;;;5073318;28;20017;-54
2023/08/05 10:11:23;;;;;;;5.40;1.33;;;14.30;99.90;;;;;;5073130;28;20032;-49
2023/08/05 10:13:52;;;;;;;3.80;1.42;;;14.40;99.90;;;;;;5073171;28;20069;-53
2023/08/05 10:16:18;;;;;;;;;;;14.50;99.90;;;;;;5073470;28;20016;-51
2023/08/05 10:18:45;;;;;;;1.73;0.80;;;14.50;99.90;;;;;;5073706;28;19908;-51
2023/08/05 10:21:11;;;;;;;3.88;0.80;;;14.50;99.90;;;;;;5072958;28;20108;-50
2023/08/05 10:23:37;;;;;;;1.85;0.93;;;14.60;99.90;;;;;;5073152;28;20437;-49
2023/08/05 10:26:04;;;;;;;2.60;1.20;;;14.60;99.90;;;;;;5073183;28;20027;-50
2023/08/05 10:28:38;;;;;;;2.20;1.00;;;14.70;99.90;;;;;;5072499;28;20408;-50
2023/08/05 10:31:05;;;;;;;2.83;0.98;;;14.70;99.90;;;;;;5073090;28;20111;-50
2023/08/05 10:33:30;;;;;;;3.30;1.23;;;14.70;99.90;;;;;;5072452;28;20017;-48
2023/08/05 10:36:07;;;;;;;3.28;1.27;;;14.70;99.90;;;;;;5072172;28;20036;-50
2023/08/05 10:38:42;;;;;;;2.97;1.10;;;14.70;99.90;;;;;;5072613;28;20013;-48
2023/08/05 10:41:10;;;;;;;3.13;1.15;;;14.70;99.90;;;;;;5072603;28;20048;-50
2023/08/05 10:43:38;;;;;;;4.55;1.35;;;14.70;99.90;;;;;;5072365;28;20111;-48
2023/08/05 10:46:06;;;;;;;2.80;1.27;;;14.80;99.90;;;;;;5072930;28;20039;-48
2023/08/05 10:48:44;;;;;;;2.80;0.90;;;14.80;99.90;;;;;;5072688;28;20102;-50
2023/08/05 10:51:16;;;;;;;3.70;0.82;;;14.80;99.90;;;;;;5058881;28;20060;-52
2023/08/05 10:53:59;;;;;;;7.75;1.17;;;14.80;99.90;;;;;;5072357;28;20037;-55
2023/08/05 10:56:35;;;;;;;2.97;1.00;;;14.80;99.90;;;;;;5072402;28;20028;-56
2023/08/05 10:59:02;;;;;;;5.90;1.10;;;14.80;99.90;;;;;;5072259;28;20037;-52
2023/08/05 11:01:53;;;;;;;3.00;0.95;;;14.80;99.90;;;;;;5072236;28;20709;-50
2023/08/05 11:04:31;;;;;;;2.78;0.80;;;14.80;99.90;;;;;;5072217;28;20082;-49
2023/08/05 11:07:00;;;;;;;6.70;1.25;;;14.80;99.90;;;;;;5072687;28;20032;-53
2023/08/05 11:09:35;;;;;;;4.72;1.23;;;14.80;99.90;;;;;;5072192;28;20056;-49
2023/08/05 11:12:01;;;;;;;5.25;1.23;;;14.80;99.90;;;;;;5072169;28;20033;-49
2023/08/05 11:14:27;;;;;;;4.30;1.13;;;14.80;99.90;;;;;;5072069;28;20054;-49
2023/08/05 11:17:00;;;;;;;5.95;1.70;;;14.90;99.90;;;;;;5072089;28;20028;-48
2023/08/05 11:19:26;;;;;;;3.38;1.52;;;14.90;99.90;;;;;;5071835;28;20032;-49
2023/08/05 11:21:52;;;;;;;14.18;1.83;;;15.00;99.90;;;;;;5072119;28;20024;-52
2023/08/05 11:24:18;;;;;;;7.30;2.05;;;15.10;99.90;;;;;;5071693;28;20044;-50
2023/08/05 11:26:44;;;;;;;6.57;1.63;;;15.00;99.90;;;;;;5071795;28;20442;-53
2023/08/05 11:29:10;;;;;;;5.65;1.45;;;15.00;99.90;;;;;;5071693;28;20032;-49
2023/08/05 11:31:36;;;;;;;5.05;1.58;;;15.10;99.90;;;;;;5071583;28;20028;-50
2023/08/05 11:34:01;;;;;;;6.22;1.58;;;15.20;99.90;;;;;;5071552;28;20056;-48
2023/08/05 11:36:29;;;;;;;6.03;1.77;;;15.20;99.90;;;;;;5071545;28;20028;-49
2023/08/05 11:39:00;;;;;;;6.50;1.38;;;15.30;99.90;;;;;;5071755;28;20114;-53
2023/08/05 11:41:26;;;;;;;9.45;1.50;;;15.30;99.90;;;;;;5071343;28;20036;-46
2023/08/05 11:43:55;;;;;;;5.68;1.70;;;15.40;99.90;;;;;;5068767;28;20037;-48
2023/08/05 11:46:29;;;;;;;6.25;1.60;;;15.50;99.90;;;;;;5069972;28;20032;-47
2023/08/05 11:49:11;;;;;;;12.10;1.48;;;15.50;99.90;;;;;;5071099;28;20035;-48
2023/08/05 11:51:47;;;;;;;4.43;1.60;;;15.60;99.90;;;;;;5071254;28;20451;-48
2023/08/05 11:54:28;;;;;;;8.05;1.85;;;15.70;99.90;;;;;;5071058;28;20051;-48
2023/08/05 11:56:53;;;;;;;3.00;1.20;;;15.80;99.90;;;;;;5071374;28;20024;-51
2023/08/05 11:59:38;;;;;;;9.93;1.65;;;15.80;99.90;;;;;;5071110;28;20431;-49
2023/08/05 12:02:04;;;;;;;6.45;1.70;;;16.00;99.90;;;;;;5071094;28;20017;-47
2023/08/05 12:04:30;;;;;;;8.20;1.98;;;16.00;99.90;;;;;;5070776;28;20023;-49
2023/08/05 12:06:55;;;;;;;6.57;1.73;;;16.00;99.90;;;;;;5070863;28;20024;-51
2023/08/05 12:09:21;;;;;;;4.82;1.33;;;16.20;99.90;;;;;;5070814;28;20044;-53
2023/08/05 12:11:47;;;;;;;5.35;1.30;;;16.50;99.90;;;;;;5070936;28;20071;-51
2023/08/05 12:14:12;;;;;;;8.90;1.33;;;16.80;99.90;;;;;;5070634;28;20488;-51
2023/08/05 12:16:38;;;;;;;13.57;1.58;;;16.90;99.90;;;;;;5070734;28;20028;-46
2023/08/05 12:19:04;;;;;;;7.55;1.25;;;17.10;99.90;;;;;;5070635;28;20021;-51
2023/08/05 12:21:29;;;;;;;8.38;1.73;;;17.10;99.90;;;;;;5070716;28;20074;-53
2023/08/05 12:23:55;;;;;;;6.90;1.35;;;17.10;99.90;;;;;;5070636;28;20016;-45
2023/08/05 12:26:27;;;;;;;5.07;0.93;;;17.00;99.90;;;;;;5070247;28;20017;-51
2023/08/05 12:28:53;;;;;;;9.25;1.45;;;17.00;99.90;;;;;;5070583;28;20025;-48
2023/08/05 12:31:18;;;;;;;11.45;1.25;;;17.00;99.90;;;;;;5070011;28;20111;-48
2023/08/05 12:33:44;;;;;;;7.82;1.40;;;17.00;99.90;;;;;;5070487;28;20019;-52
2023/08/05 12:36:10;;;;;;;5.15;1.42;;;17.00;99.90;;;;;;5070373;28;20082;-49
2023/08/05 12:38:35;;;;;;;8.93;1.25;;;17.00;99.90;;;;;;5070240;28;20378;-50
2023/08/05 12:41:01;;;;;;;7.50;1.38;;;16.90;99.90;;;;;;5070186;28;20024;-53
2023/08/05 12:43:27;;;;;;;9.82;1.50;;;16.90;99.90;;;;;;5070281;28;20032;-51